Terminal Aerodrome Forecast
Issued by NWS

Home | Current Version | Previous Version | Text Only | Print | Product List | Glossary On
Versions: 1 2 3 4 5 6 7 8 9 10 11 12
000
FTUS44 KBMX 291733
TAFTOI
TAF
KTOI 291733Z 2918/3018 13007KT 6SM -SHRA VCTS BKN035CB
     FM300000 09003KT P6SM -SHRA VCTS OVC045CB
     FM300300 VRB03KT P6SM BKN150=

USA.gov is the U.S. government's official web portal to all federal, state and local government web resources and services.